createdAt,value
2024-02-10T00:14:26.872Z,347.01538
2024-02-10T00:29:28.931Z,238.45192
2024-02-10T00:44:30.941Z,135.70435
2024-02-10T00:59:32.958Z,47.49652
2024-02-10T01:14:35.088Z,5.8159
2024-02-10T01:29:37.070Z,0
2024-02-10T01:44:39.123Z,0
2024-02-10T01:59:41.223Z,0
2024-02-10T02:14:43.223Z,0
2024-02-10T02:29:45.293Z,0
2024-02-10T02:44:47.394Z,0
2024-02-10T02:59:49.501Z,0
2024-02-10T03:14:51.677Z,0
2024-02-10T03:29:53.937Z,0
2024-02-10T03:44:56.615Z,0
2024-02-10T03:59:58.668Z,0
2024-02-10T04:15:00.742Z,0
2024-02-10T04:30:02.815Z,0
2024-02-10T04:45:04.867Z,0
2024-02-10T05:00:06.890Z,0
2024-02-10T05:15:08.876Z,0
2024-02-10T05:30:11.521Z,0
2024-02-10T05:45:13.728Z,0
2024-02-10T06:00:15.745Z,0
2024-02-10T06:15:18.038Z,0
2024-02-10T06:30:20.290Z,0
2024-02-10T06:45:22.450Z,0
2024-02-10T07:00:24.618Z,0
2024-02-10T07:15:26.916Z,0
2024-02-10T07:30:29.158Z,0
2024-02-10T07:45:32.510Z,0
2024-02-10T08:00:34.694Z,0
2024-02-10T08:15:36.747Z,0
2024-02-10T08:30:38.602Z,0
2024-02-10T08:45:40.690Z,0
2024-02-10T09:00:42.800Z,0
2024-02-10T09:15:44.791Z,0
2024-02-10T09:30:46.852Z,0
2024-02-10T09:45:48.861Z,0
2024-02-10T10:00:51.168Z,0
2024-02-10T10:15:53.348Z,0
2024-02-10T10:30:55.415Z,0
2024-02-10T10:45:57.593Z,0
2024-02-10T11:00:59.717Z,0
2024-02-10T11:16:01.959Z,0
2024-02-10T11:31:03.997Z,0
2024-02-10T11:46:05.988Z,0
2024-02-10T12:01:08.186Z,0
2024-02-10T12:16:10.373Z,0
2024-02-10T12:31:12.443Z,0
2024-02-10T12:46:14.658Z,0
2024-02-10T13:01:16.834Z,0
2024-02-10T13:16:19.140Z,0
2024-02-10T13:31:21.653Z,0
2024-02-10T13:46:24.046Z,0
2024-02-10T14:01:26.338Z,0
2024-02-10T14:16:29.256Z,0
2024-02-10T14:31:32.041Z,0
2024-02-10T14:46:34.174Z,2.90795
2024-02-10T15:01:36.590Z,34.8954
2024-02-10T15:16:38.805Z,132.79639
2024-02-10T15:31:41.079Z,312.12
2024-02-10T15:46:43.550Z,853.96802
2024-02-10T16:01:45.858Z,3172.57373
2024-02-10T16:16:48.061Z,915.03497
2024-02-10T16:31:50.250Z,1123.43811
2024-02-10T16:46:52.297Z,2562.87329
2024-02-10T17:01:54.520Z,2098.5708
2024-02-10T17:16:56.606Z,3889.86792
2024-02-10T17:31:58.801Z,2290.49536
2024-02-10T17:47:00.906Z,2861.42285
2024-02-10T18:02:03.039Z,2772.24585
2024-02-10T18:17:05.217Z,2201.31836
2024-02-10T18:32:07.350Z,2324.42139
2024-02-10T18:47:09.494Z,2392.27368
2024-02-10T19:02:11.718Z,2408.75195
2024-02-10T19:17:13.780Z,1917.30847
2024-02-10T19:32:15.979Z,3571.93213
2024-02-10T19:47:18.159Z,4910.55859
2024-02-10T20:02:20.650Z,3869.51245
2024-02-10T20:17:22.852Z,3164.81909
2024-02-10T20:32:25.089Z,4695.37012
2024-02-10T20:47:27.362Z,4786.48584
2024-02-10T21:02:29.360Z,6112.51123
2024-02-10T21:17:32.726Z,6630.12646
2024-02-10T21:32:34.828Z,5797.4834
2024-02-10T21:47:36.925Z,3231.7019
2024-02-10T22:02:38.960Z,2118.92627
2024-02-10T22:17:41.050Z,2104.38672
2024-02-10T22:32:43.141Z,1620.69751
2024-02-10T22:47:45.511Z,1794.2052
2024-02-10T23:02:47.699Z,1914.40051
2024-02-10T23:17:50.177Z,1141.8551
2024-02-10T23:32:52.409Z,735.71136
2024-02-10T23:47:54.678Z,624.23999
